createdAt,value
2022-09-28T00:01:25.851Z,99857.84
2022-09-28T00:06:24.179Z,99859.09
2022-09-28T00:11:27.815Z,99861.72
2022-09-28T00:16:33.585Z,99855.81
2022-09-28T00:21:32.122Z,99866.94
2022-09-28T00:26:32.599Z,99863.41
2022-09-28T00:31:36.385Z,99849.44
2022-09-28T00:36:33.582Z,99856.50
2022-09-28T00:41:30.407Z,99850.75
2022-09-28T00:46:30.995Z,99845.69
2022-09-28T00:51:30.018Z,99844.38
2022-09-28T00:56:31.403Z,99849.56
2022-09-28T01:01:28.343Z,99848.63
2022-09-28T01:06:30.747Z,99842.44
2022-09-28T01:11:27.884Z,99839.19
2022-09-28T01:16:35.226Z,99844.50
2022-09-28T01:21:50.970Z,99834.75
2022-09-28T01:26:55.841Z,99841.38
2022-09-28T01:31:57.001Z,99854.50
2022-09-28T01:36:59.302Z,99848.22
2022-09-28T01:41:59.438Z,99851.38
2022-09-28T01:47:02.980Z,99852.22
2022-09-28T01:52:01.891Z,99866.78
2022-09-28T01:57:02.871Z,99866.56
2022-09-28T02:02:05.867Z,99878.88
2022-09-28T02:07:07.915Z,99882.63
2022-09-28T02:12:09.650Z,99885.25
2022-09-28T02:17:07.931Z,99896.94
2022-09-28T02:22:12.796Z,99912.88
2022-09-28T02:27:13.056Z,99916.38
2022-09-28T02:32:13.345Z,99913.81
2022-09-28T02:37:11.433Z,99912.41
2022-09-28T02:42:19.707Z,99913.16
2022-09-28T02:47:22.436Z,99917.59
2022-09-28T02:52:34.180Z,99918.19
2022-09-28T02:57:36.896Z,99918.19
2022-09-28T03:02:39.464Z,99924.63
2022-09-28T03:07:39.494Z,99911.59
2022-09-28T03:12:37.062Z,99936.72
2022-09-28T03:17:36.574Z,99943.94
2022-09-28T03:22:33.428Z,99950.34
2022-09-28T03:28:04.477Z,99947.25
2022-09-28T03:33:06.497Z,99942.28
2022-09-28T03:38:06.385Z,99949.38
2022-09-28T03:43:07.246Z,99944.31
2022-09-28T03:48:04.343Z,99949.75
2022-09-28T03:53:06.828Z,99946.41
2022-09-28T03:58:03.553Z,99954.41
2022-09-28T04:03:02.050Z,99964.25
2022-09-28T04:07:58.749Z,99962.97
2022-09-28T04:12:56.415Z,99964.72
2022-09-28T04:17:53.313Z,99970.63
2022-09-28T04:23:14.749Z,99964.34
2022-09-28T04:28:31.987Z,99973.06
2022-09-28T04:33:29.579Z,99967.25
2022-09-28T04:38:48.413Z,99966.09
2022-09-28T04:43:46.250Z,99972.53
2022-09-28T04:48:45.188Z,99969.28
2022-09-28T04:54:05.075Z,99964.69
2022-09-28T04:59:13.541Z,99964.06
2022-09-28T05:04:25.601Z,99978.50
2022-09-28T05:09:41.401Z,99964.16
2022-09-28T05:14:42.748Z,99977.81
2022-09-28T05:19:40.476Z,99947.69
2022-09-28T05:24:37.722Z,99971.34
2022-09-28T05:29:37.787Z,99976.81
2022-09-28T05:35:00.607Z,99969.88
2022-09-28T05:40:33.621Z,99988.81
2022-09-28T05:45:30.659Z,99979.84
2022-09-28T05:50:43.313Z,99995.56
2022-09-28T05:55:45.936Z,99989.28
2022-09-28T06:00:43.629Z,99985.59
2022-09-28T06:05:43.049Z,99992.97
2022-09-28T06:10:40.364Z,100002.38
2022-09-28T06:15:37.451Z,100013.47
2022-09-28T06:20:35.021Z,99999.38
2022-09-28T06:25:48.611Z,100021.59
2022-09-28T06:30:47.765Z,100025.34
2022-09-28T06:36:24.278Z,100022.16
2022-09-28T06:42:49.215Z,100029.63
2022-09-28T06:48:20.933Z,100046.16
2022-09-28T07:00:30.782Z,100052.56
2022-09-28T07:05:58.942Z,100045.31
2022-09-28T07:11:23.245Z,100052.56
2022-09-28T07:17:11.792Z,100064.78
2022-09-28T07:34:05.914Z,100061.69
2022-09-28T07:39:21.845Z,100053.59
2022-09-28T07:44:21.694Z,100059.41
2022-09-28T07:49:26.016Z,100066.78
2022-09-28T07:54:51.676Z,100063.69
2022-09-28T08:00:30.827Z,100057.22
2022-09-28T08:05:36.510Z,100064.94
2022-09-28T08:10:33.691Z,100061.19
2022-09-28T08:16:25.138Z,100056.44
2022-09-28T08:21:44.926Z,100054.84
2022-09-28T08:26:43.017Z,100051.28
2022-09-28T08:31:42.989Z,100051.59
2022-09-28T08:37:02.540Z,100055.56
2022-09-28T08:42:15.694Z,100053.94
2022-09-28T08:47:52.384Z,100052.84
2022-09-28T08:53:04.507Z,100037.22
2022-09-28T08:58:35.954Z,100041.03
2022-09-28T09:03:37.998Z,100027.13
2022-09-28T09:09:00.462Z,100024.16
2022-09-28T09:14:09.391Z,100018.50
2022-09-28T09:19:12.868Z,100014.41
2022-09-28T09:24:42.062Z,100023.66
2022-09-28T09:29:58.454Z,100034.56
2022-09-28T09:35:00.972Z,100033.41
2022-09-28T09:40:32.940Z,100034.25
2022-09-28T09:45:58.198Z,100040.81
2022-09-28T09:51:14.917Z,100032.75
2022-09-28T09:56:15.221Z,100038.06
2022-09-28T10:01:40.076Z,100044.81
2022-09-28T10:06:54.651Z,100035.59
2022-09-28T10:11:54.436Z,100032.72
2022-09-28T10:16:53.051Z,100030.44
2022-09-28T10:22:17.335Z,100030.97
2022-09-28T10:27:16.785Z,100033.66
2022-09-28T10:32:25.922Z,100036.63
2022-09-28T10:37:27.237Z,100034.72
2022-09-28T10:42:40.484Z,100035.63
2022-09-28T10:47:50.506Z,100033.34
2022-09-28T10:52:53.217Z,100035.81
2022-09-28T10:58:25.016Z,100031.59
2022-09-28T11:03:25.021Z,100025.47
2022-09-28T11:08:25.253Z,100025.72
2022-09-28T11:13:23.370Z,100012.97
2022-09-28T11:18:31.806Z,100010.22
2022-09-28T11:23:33.789Z,100006.06
2022-09-28T11:28:51.187Z,100001.69
2022-09-28T11:34:06.373Z,100004.75
2022-09-28T11:39:23.136Z,99998.66
2022-09-28T11:44:37.197Z,99998.78
2022-09-28T11:49:40.202Z,99982.34
2022-09-28T11:54:40.540Z,99991.59
2022-09-28T11:59:40.882Z,99998.31
2022-09-28T12:04:41.561Z,99983.25
2022-09-28T12:09:49.181Z,99993.81
2022-09-28T12:14:51.428Z,99986.44
2022-09-28T12:19:49.328Z,99982.13
2022-09-28T12:24:51.008Z,99970.75
2022-09-28T12:29:59.516Z,99982.06
2022-09-28T12:34:56.771Z,99964.88
2022-09-28T12:40:09.051Z,99962.06
2022-09-28T12:45:21.096Z,99959.09
2022-09-28T12:50:38.277Z,99959.44
2022-09-28T12:55:49.477Z,99959.31
2022-09-28T13:00:53.789Z,99956.78
2022-09-28T13:06:11.227Z,99966.72
2022-09-28T13:11:15.050Z,99970.72
2022-09-28T13:16:20.831Z,99959.94
2022-09-28T13:21:28.435Z,99974.53
2022-09-28T13:26:28.697Z,99968.41
2022-09-28T13:31:33.038Z,99974.56
2022-09-28T13:36:47.193Z,99980.97
2022-09-28T13:41:50.061Z,99982.66
2022-09-28T13:46:52.451Z,99972.94
2022-09-28T13:51:57.620Z,99974.97
2022-09-28T13:57:03.033Z,99963.75
2022-09-28T14:02:06.902Z,99975.63
2022-09-28T14:07:10.023Z,99983.69
2022-09-28T14:12:25.998Z,99989.38
2022-09-28T14:17:49.698Z,99984.00
2022-09-28T14:29:08.099Z,99974.91
2022-09-28T14:34:24.023Z,99962.53
2022-09-28T14:39:44.422Z,99981.00
2022-09-28T14:45:05.017Z,99981.88
2022-09-28T14:50:20.934Z,99980.84
2022-09-28T14:55:20.120Z,100001.81
2022-09-28T15:00:48.041Z,100009.50
2022-09-28T15:06:12.511Z,100005.47
2022-09-28T15:17:19.186Z,100025.19
2022-09-28T15:22:44.827Z,100018.94
2022-09-28T15:33:51.903Z,100031.56
2022-09-28T15:38:53.239Z,100024.13
2022-09-28T15:44:14.197Z,100035.47
2022-09-28T15:49:24.333Z,100037.63
2022-09-28T15:54:23.882Z,100040.94
2022-09-28T15:59:25.825Z,100032.53
2022-09-28T16:04:35.144Z,100040.06
2022-09-28T16:09:38.837Z,100036.34
2022-09-28T16:14:40.518Z,100039.31
2022-09-28T16:19:43.265Z,100036.94
2022-09-28T16:24:41.026Z,100046.28
2022-09-28T16:29:40.472Z,100034.88
2022-09-28T16:34:37.401Z,100026.47
2022-09-28T16:39:42.432Z,100034.41
2022-09-28T16:44:39.950Z,100045.97
2022-09-28T16:49:39.343Z,100052.50
2022-09-28T16:54:54.184Z,100062.19
2022-09-28T16:59:52.682Z,100063.38
2022-09-28T17:04:49.601Z,100062.47
2022-09-28T17:09:46.252Z,100068.53
2022-09-28T17:14:44.159Z,100067.63
2022-09-28T17:19:41.710Z,100079.63
2022-09-28T17:36:32.299Z,100071.88
2022-09-28T17:42:31.574Z,100069.84
2022-09-28T17:47:34.273Z,100076.72
2022-09-28T17:52:35.213Z,100073.75
2022-09-28T17:57:39.139Z,100065.47
2022-09-28T18:02:37.394Z,100068.63
2022-09-28T18:07:34.939Z,100072.28
2022-09-28T18:12:48.863Z,100077.31
2022-09-28T18:17:45.685Z,100083.06
2022-09-28T18:22:43.196Z,100089.91
2022-09-28T18:27:40.018Z,100106.81
2022-09-28T18:32:37.073Z,100100.41
2022-09-28T18:37:36.033Z,100102.59
2022-09-28T18:42:35.089Z,100088.97
2022-09-28T18:47:32.374Z,100087.94
2022-09-28T18:52:32.092Z,100083.31
2022-09-28T18:57:29.253Z,100082.84
2022-09-28T19:02:31.829Z,100077.06
2022-09-28T19:07:28.773Z,100084.28
2022-09-28T19:12:26.158Z,100072.41
2022-09-28T19:17:29.385Z,100086.22
2022-09-28T19:22:30.873Z,100094.78
2022-09-28T19:27:28.389Z,100103.66
2022-09-28T19:32:28.828Z,100104.72
2022-09-28T19:37:26.261Z,100114.34
2022-09-28T19:42:23.210Z,100115.16
2022-09-28T19:47:21.188Z,100120.91
2022-09-28T19:52:17.788Z,100123.69
2022-09-28T19:57:17.940Z,100111.91
2022-09-28T20:02:14.864Z,100114.19
2022-09-28T20:07:14.931Z,100119.81
2022-09-28T20:12:12.905Z,100140.16
2022-09-28T20:17:10.520Z,100133.22
2022-09-28T20:22:11.567Z,100135.06
2022-09-28T20:27:11.465Z,100139.38
2022-09-28T20:32:08.379Z,100148.84
2022-09-28T20:37:06.155Z,100151.06
2022-09-28T20:42:02.921Z,100142.41
2022-09-28T20:46:59.979Z,100146.81
2022-09-28T20:52:08.303Z,100148.53
2022-09-28T20:57:16.853Z,100141.34
2022-09-28T21:02:14.921Z,100133.22
2022-09-28T21:07:15.876Z,100146.75
2022-09-28T21:12:19.871Z,100143.66
2022-09-28T21:17:23.024Z,100154.59
2022-09-28T21:22:28.157Z,100161.22
2022-09-28T21:27:32.823Z,100158.56
2022-09-28T21:32:29.632Z,100150.09
2022-09-28T21:37:30.842Z,100154.03
2022-09-28T21:42:28.160Z,100153.50
2022-09-28T21:47:24.845Z,100153.19
2022-09-28T21:52:21.455Z,100150.09
2022-09-28T21:57:20.135Z,100147.19
2022-09-28T22:02:18.904Z,100144.22
2022-09-28T22:07:15.936Z,100159.94
2022-09-28T22:12:13.474Z,100154.88
2022-09-28T22:17:10.639Z,100153.19
2022-09-28T22:22:13.428Z,100151.66
2022-09-28T22:27:10.597Z,100141.13
2022-09-28T22:32:07.803Z,100125.66
2022-09-28T22:37:04.617Z,100151.25
2022-09-28T22:42:02.103Z,100156.28
2022-09-28T22:47:00.849Z,100145.13
2022-09-28T22:51:57.651Z,100142.66
2022-09-28T22:56:54.528Z,100122.09
2022-09-28T23:01:51.862Z,100127.91
2022-09-28T23:06:48.511Z,100118.69
2022-09-28T23:11:45.428Z,100117.38
2022-09-28T23:16:42.186Z,100124.19
2022-09-28T23:21:39.519Z,100115.38
2022-09-28T23:26:36.397Z,100123.41
2022-09-28T23:31:33.632Z,100112.16
2022-09-28T23:36:30.374Z,100117.19
2022-09-28T23:41:30.293Z,100117.34
2022-09-28T23:46:31.890Z,100118.78
2022-09-28T23:51:33.443Z,100107.50
2022-09-28T23:56:31.081Z,100098.81
